Terminal Aerodrome Forecast
Issued by NWS

Current Version | Previous Version | Text Only | Print | Product List | Glossary On
Versions: 1 2 3 4 5 6 7 8 9 10 11 12 13 14 15 16 17 18 19 20 21 22 23 24 25 26 27 28 29 30 31 32
000 FTUS42 KRAH 291731 TAFINT TAF KINT 291731Z 2918/3018 04007KT P6SM BKN025 OVC035 TEMPO 2918/2921 SCT025 FM292100 06004KT P6SM SCT030 BKN040 FM300600 VRB02KT 4SM BR SCT005 BKN015 FM301500 13004KT P6SM SCT040 BKN250=

USA.gov is the U.S. government's official web portal to all federal, state and local government web resources and services.